TimeEST,TemperatureF,Dew PointF,Humidity,Sea Level PressureIn,VisibilityMPH,Wind Direction,Wind SpeedMPH,Gust SpeedMPH,PrecipitationIn,Events,Conditions,WindDirDegrees,DateUTC
12:15 AM,45.0,41.0,86,29.85,10.0,Calm,Calm,-,N/A,,Overcast,0,2013-12-03 05:15:00
12:35 AM,44.6,41.2,88,29.84,10.0,ESE,4.6,-,N/A,,Overcast,110,2013-12-03 05:35:00
12:55 AM,44.1,41.2,90,29.84,10.0,ESE,4.6,-,N/A,,Mostly Cloudy,110,2013-12-03 05:55:00
1:15 AM,44.6,40.1,84,29.83,10.0,ENE,3.5,-,N/A,,Mostly Cloudy,60,2013-12-03 06:15:00
1:35 AM,43.2,39.7,88,29.83,10.0,Calm,Calm,-,N/A,,Scattered Clouds,0,2013-12-03 06:35:00
1:55 AM,44.1,40.1,86,29.84,10.0,Calm,Calm,-,N/A,,Overcast,0,2013-12-03 06:55:00
2:15 AM,43.9,40.6,88,29.83,10.0,East,4.6,-,N/A,,Overcast,90,2013-12-03 07:15:00
2:35 AM,44.6,40.3,85,29.84,10.0,Calm,Calm,-,N/A,,Overcast,0,2013-12-03 07:35:00
2:55 AM,44.6,41.0,87,29.84,10.0,SE,3.5,-,N/A,,Overcast,130,2013-12-03 07:55:00
3:15 AM,44.6,40.8,87,29.85,10.0,Calm,Calm,-,N/A,,Overcast,0,2013-12-03 08:15:00
3:35 AM,44.8,41.4,88,29.84,10.0,Calm,Calm,-,N/A,,Overcast,0,2013-12-03 08:35:00
3:55 AM,44.8,41.2,87,29.84,10.0,Calm,Calm,-,N/A,,Overcast,0,2013-12-03 08:55:00
4:15 AM,45.1,41.0,85,29.85,10.0,Calm,Calm,-,N/A,,Overcast,0,2013-12-03 09:15:00
4:35 AM,45.0,41.5,88,29.84,10.0,Calm,Calm,-,N/A,,Overcast,0,2013-12-03 09:35:00
4:55 AM,44.6,41.0,87,29.85,10.0,Calm,Calm,-,N/A,,Overcast,0,2013-12-03 09:55:00
5:15 AM,44.6,41.0,87,29.86,10.0,Calm,Calm,-,N/A,,Overcast,0,2013-12-03 10:15:00
5:35 AM,45.0,41.0,86,29.86,10.0,Calm,Calm,-,N/A,,Overcast,0,2013-12-03 10:35:00
5:55 AM,45.0,41.5,88,29.88,10.0,Calm,Calm,-,N/A,,Overcast,0,2013-12-03 10:55:00
6:15 AM,44.6,42.1,91,29.87,10.0,Calm,Calm,-,N/A,,Overcast,0,2013-12-03 11:15:00
6:35 AM,44.6,42.8,93,29.87,10.0,Calm,Calm,-,N/A,,Overcast,0,2013-12-03 11:35:00
6:55 AM,44.6,41.9,90,29.87,10.0,East,3.5,-,N/A,,Overcast,100,2013-12-03 11:55:00
7:15 AM,44.6,41.2,88,29.86,10.0,ESE,5.8,-,N/A,,Overcast,110,2013-12-03 12:15:00
7:35 AM,44.6,41.0,87,29.86,10.0,East,3.5,-,N/A,,Overcast,80,2013-12-03 12:35:00
7:55 AM,44.8,41.0,87,29.87,10.0,Calm,Calm,-,N/A,,Overcast,0,2013-12-03 12:55:00
8:15 AM,45.0,41.2,87,29.87,10.0,East,5.8,-,N/A,,Overcast,80,2013-12-03 13:15:00
8:35 AM,45.5,41.0,84,29.88,10.0,East,3.5,-,N/A,,Overcast,90,2013-12-03 13:35:00
8:55 AM,46.0,41.4,84,29.88,10.0,East,4.6,-,N/A,,Overcast,90,2013-12-03 13:55:00
9:15 AM,46.6,41.9,84,29.89,10.0,Calm,Calm,-,N/A,,Overcast,0,2013-12-03 14:15:00
9:35 AM,47.3,42.1,82,29.90,10.0,Calm,Calm,-,N/A,,Overcast,0,2013-12-03 14:35:00
9:55 AM,47.8,42.3,81,29.90,10.0,East,5.8,-,N/A,,Overcast,90,2013-12-03 14:55:00
10:15 AM,49.1,43.0,79,29.91,10.0,East,5.8,-,N/A,,Overcast,100,2013-12-03 15:15:00
10:35 AM,50.0,43.5,78,29.91,10.0,ESE,3.5,-,N/A,,Overcast,110,2013-12-03 15:35:00
10:55 AM,51.1,44.2,77,29.91,10.0,East,3.5,-,N/A,,Overcast,100,2013-12-03 15:55:00
11:15 AM,51.1,44.2,77,29.92,10.0,Calm,Calm,-,N/A,,Overcast,0,2013-12-03 16:15:00
11:35 AM,52.0,44.6,76,29.91,10.0,Calm,Calm,-,N/A,,Overcast,0,2013-12-03 16:35:00
11:55 AM,53.4,45.7,75,29.90,10.0,Calm,Calm,-,N/A,,Overcast,0,2013-12-03 16:55:00
12:15 PM,55.0,46.8,74,29.89,10.0,Calm,Calm,-,N/A,,Overcast,0,2013-12-03 17:15:00
12:35 PM,56.8,47.7,71,29.88,10.0,East,3.5,-,N/A,,Scattered Clouds,90,2013-12-03 17:35:00
12:55 PM,57.7,48.2,70,29.87,10.0,Calm,Calm,-,N/A,,Clear,0,2013-12-03 17:55:00
1:15 PM,57.7,48.0,70,29.86,10.0,Calm,Calm,-,N/A,,Clear,0,2013-12-03 18:15:00
1:35 PM,59.0,48.2,67,29.85,10.0,Calm,Calm,-,N/A,,Clear,0,2013-12-03 18:35:00
1:55 PM,59.4,48.4,67,29.85,10.0,Calm,Calm,-,N/A,,Clear,0,2013-12-03 18:55:00
2:15 PM,59.9,48.4,66,29.86,10.0,Calm,Calm,-,N/A,,Clear,0,2013-12-03 19:15:00
2:35 PM,60.3,48.6,65,29.85,10.0,Calm,Calm,-,N/A,,Clear,0,2013-12-03 19:35:00
2:55 PM,59.9,48.2,65,29.85,10.0,North,4.6,-,N/A,,Scattered Clouds,360,2013-12-03 19:55:00
3:15 PM,59.9,47.5,64,29.85,10.0,Calm,Calm,-,N/A,,Overcast,0,2013-12-03 20:15:00
3:35 PM,59.5,47.3,64,29.86,10.0,Calm,Calm,-,N/A,,Overcast,0,2013-12-03 20:35:00
3:55 PM,59.4,47.5,65,29.86,10.0,Calm,Calm,-,N/A,,Overcast,0,2013-12-03 20:55:00
4:15 PM,59.0,48.2,67,29.87,10.0,Calm,Calm,-,N/A,,Overcast,0,2013-12-03 21:15:00
4:35 PM,57.7,48.4,71,29.86,10.0,East,8.1,-,N/A,,Mostly Cloudy,90,2013-12-03 21:35:00
4:55 PM,56.7,48.2,73,29.86,10.0,ESE,5.8,-,N/A,,Overcast,120,2013-12-03 21:55:00
5:15 PM,55.0,47.7,76,29.86,10.0,ESE,5.8,-,N/A,,Mostly Cloudy,110,2013-12-03 22:15:00
5:35 PM,54.7,47.5,77,29.86,10.0,East,5.8,-,N/A,,Scattered Clouds,100,2013-12-03 22:35:00
5:55 PM,54.3,47.3,77,29.87,10.0,ESE,4.6,-,N/A,,Scattered Clouds,110,2013-12-03 22:55:00
6:15 PM,54.5,47.3,77,29.87,10.0,East,4.6,-,N/A,,Mostly Cloudy,90,2013-12-03 23:15:00
6:35 PM,54.9,47.5,76,29.88,10.0,East,4.6,-,N/A,,Mostly Cloudy,80,2013-12-03 23:35:00
6:55 PM,55.0,47.3,75,29.88,10.0,East,4.6,-,N/A,,Overcast,80,2013-12-03 23:55:00
7:15 PM,54.5,46.9,76,29.87,10.0,East,6.9,-,N/A,,Mostly Cloudy,90,2013-12-04 00:15:00
7:35 PM,53.8,46.8,77,29.87,10.0,East,5.8,-,N/A,,Scattered Clouds,90,2013-12-04 00:35:00
7:55 PM,53.2,46.6,78,29.88,10.0,East,5.8,-,N/A,,Scattered Clouds,90,2013-12-04 00:55:00
8:15 PM,52.3,46.2,80,29.88,10.0,East,8.1,-,N/A,,Scattered Clouds,90,2013-12-04 01:15:00
8:35 PM,51.6,46.0,81,29.88,10.0,East,4.6,-,N/A,,Clear,80,2013-12-04 01:35:00
8:55 PM,50.5,45.5,83,29.88,10.0,East,4.6,-,N/A,,Clear,90,2013-12-04 01:55:00
9:15 PM,49.5,45.5,86,29.89,10.0,Calm,Calm,-,N/A,,Clear,0,2013-12-04 02:15:00
9:35 PM,49.1,45.5,87,29.90,10.0,Calm,Calm,-,N/A,,Clear,0,2013-12-04 02:35:00
9:55 PM,48.2,45.0,89,29.91,10.0,Calm,Calm,-,N/A,,Clear,0,2013-12-04 02:55:00
10:15 PM,48.0,45.3,90,29.91,10.0,Calm,Calm,-,N/A,,Mostly Cloudy,0,2013-12-04 03:15:00
10:35 PM,47.8,45.3,91,29.91,10.0,Calm,Calm,-,N/A,,Overcast,0,2013-12-04 03:35:00
10:55 PM,46.6,44.8,93,29.91,10.0,Calm,Calm,-,N/A,,Scattered Clouds,0,2013-12-04 03:55:00
11:15 PM,47.5,45.5,93,29.91,10.0,Calm,Calm,-,N/A,,Scattered Clouds,0,2013-12-04 04:15:00
11:35 PM,46.9,45.3,94,29.91,10.0,Calm,Calm,-,N/A,,Clear,0,2013-12-04 04:35:00
11:55 PM,46.2,45.0,95,29.91,10.0,Calm,Calm,-,N/A,,Clear,0,2013-12-04 04:55:00